sensor_id;sensor_type;location;lat;lon;timestamp;temperature;humidity
54642;DHT22;40536;53.194;5.728;2023-04-28T00:01:10;6.50;99.90
54642;DHT22;40536;53.194;5.728;2023-04-28T00:03:36;7.30;99.90
54642;DHT22;40536;53.194;5.728;2023-04-28T00:06:02;7.00;99.90
54642;DHT22;40536;53.194;5.728;2023-04-28T00:08:28;6.50;99.90
54642;DHT22;40536;53.194;5.728;2023-04-28T00:10:54;6.50;99.90
54642;DHT22;40536;53.194;5.728;2023-04-28T00:13:20;6.50;99.90
54642;DHT22;40536;53.194;5.728;2023-04-28T00:15:45;6.50;99.90
54642;DHT22;40536;53.194;5.728;2023-04-28T00:18:11;6.60;99.90
54642;DHT22;40536;53.194;5.728;2023-04-28T00:20:37;6.80;99.90
54642;DHT22;40536;53.194;5.728;2023-04-28T00:23:03;6.60;99.90
54642;DHT22;40536;53.194;5.728;2023-04-28T00:25:28;6.50;99.90
54642;DHT22;40536;53.194;5.728;2023-04-28T00:27:54;6.60;99.90
54642;DHT22;40536;53.194;5.728;2023-04-28T00:30:20;6.60;99.90
54642;DHT22;40536;53.194;5.728;2023-04-28T00:32:45;6.40;99.90
54642;DHT22;40536;53.194;5.728;2023-04-28T00:35:11;6.40;99.90
54642;DHT22;40536;53.194;5.728;2023-04-28T00:37:40;6.40;99.90
54642;DHT22;40536;53.194;5.728;2023-04-28T00:40:07;6.50;99.90
54642;DHT22;40536;53.194;5.728;2023-04-28T00:42:33;6.40;99.90
54642;DHT22;40536;53.194;5.728;2023-04-28T00:44:59;6.40;99.90
54642;DHT22;40536;53.194;5.728;2023-04-28T00:47:33;6.50;99.90
54642;DHT22;40536;53.194;5.728;2023-04-28T00:50:03;6.40;99.90
54642;DHT22;40536;53.194;5.728;2023-04-28T00:52:32;6.40;99.90
54642;DHT22;40536;53.194;5.728;2023-04-28T00:54:57;6.30;99.90
54642;DHT22;40536;53.194;5.728;2023-04-28T00:57:23;6.40;99.90
54642;DHT22;40536;53.194;5.728;2023-04-28T00:59:49;6.40;99.90
54642;DHT22;40536;53.194;5.728;2023-04-28T01:02:15;6.60;99.90
54642;DHT22;40536;53.194;5.728;2023-04-28T01:04:46;6.40;99.90
54642;DHT22;40536;53.194;5.728;2023-04-28T01:07:12;6.40;99.90
54642;DHT22;40536;53.194;5.728;2023-04-28T01:09:38;7.10;99.90
54642;DHT22;40536;53.194;5.728;2023-04-28T01:12:04;6.70;99.90
54642;DHT22;40536;53.194;5.728;2023-04-28T01:14:30;6.40;99.90
54642;DHT22;40536;53.194;5.728;2023-04-28T01:16:55;6.80;99.90
54642;DHT22;40536;53.194;5.728;2023-04-28T01:19:22;6.40;99.90
54642;DHT22;40536;53.194;5.728;2023-04-28T01:21:49;6.70;99.90
54642;DHT22;40536;53.194;5.728;2023-04-28T01:24:15;6.90;99.90
54642;DHT22;40536;53.194;5.728;2023-04-28T01:26:40;6.50;99.90
54642;DHT22;40536;53.194;5.728;2023-04-28T01:29:06;6.40;99.90
54642;DHT22;40536;53.194;5.728;2023-04-28T01:31:32;6.40;99.90
54642;DHT22;40536;53.194;5.728;2023-04-28T01:33:58;6.40;99.90
54642;DHT22;40536;53.194;5.728;2023-04-28T01:36:24;6.70;99.90
54642;DHT22;40536;53.194;5.728;2023-04-28T01:38:52;6.40;99.90
54642;DHT22;40536;53.194;5.728;2023-04-28T01:41:17;6.40;99.90
54642;DHT22;40536;53.194;5.728;2023-04-28T01:43:43;6.30;99.90
54642;DHT22;40536;53.194;5.728;2023-04-28T01:46:09;6.70;99.90
54642;DHT22;40536;53.194;5.728;2023-04-28T01:48:35;6.50;99.90
54642;DHT22;40536;53.194;5.728;2023-04-28T01:51:01;6.50;99.90
54642;DHT22;40536;53.194;5.728;2023-04-28T01:53:26;6.30;99.90
54642;DHT22;40536;53.194;5.728;2023-04-28T01:55:52;6.60;99.90
54642;DHT22;40536;53.194;5.728;2023-04-28T01:58:18;6.30;99.90
54642;DHT22;40536;53.194;5.728;2023-04-28T02:00:44;6.40;99.90
54642;DHT22;40536;53.194;5.728;2023-04-28T02:03:10;6.60;99.90
54642;DHT22;40536;53.194;5.728;2023-04-28T02:05:36;6.30;99.90
54642;DHT22;40536;53.194;5.728;2023-04-28T02:08:02;6.30;99.90
54642;DHT22;40536;53.194;5.728;2023-04-28T02:10:28;6.30;99.90
54642;DHT22;40536;53.194;5.728;2023-04-28T02:12:53;6.70;99.90
54642;DHT22;40536;53.194;5.728;2023-04-28T02:15:19;6.30;99.90
54642;DHT22;40536;53.194;5.728;2023-04-28T02:17:46;7.30;99.90
54642;DHT22;40536;53.194;5.728;2023-04-28T02:20:11;6.30;99.90
54642;DHT22;40536;53.194;5.728;2023-04-28T02:22:39;6.30;99.90
54642;DHT22;40536;53.194;5.728;2023-04-28T02:25:06;7.00;99.90
54642;DHT22;40536;53.194;5.728;2023-04-28T02:27:37;6.40;99.90
54642;DHT22;40536;53.194;5.728;2023-04-28T02:30:04;6.40;99.90
54642;DHT22;40536;53.194;5.728;2023-04-28T02:32:30;6.40;99.90
54642;DHT22;40536;53.194;5.728;2023-04-28T02:34:56;6.40;99.90
54642;DHT22;40536;53.194;5.728;2023-04-28T02:37:22;6.40;99.90
54642;DHT22;40536;53.194;5.728;2023-04-28T02:39:47;6.70;99.90
54642;DHT22;40536;53.194;5.728;2023-04-28T02:42:13;6.40;99.90
54642;DHT22;40536;53.194;5.728;2023-04-28T02:44:39;7.50;99.90
54642;DHT22;40536;53.194;5.728;2023-04-28T02:47:05;6.70;99.90
54642;DHT22;40536;53.194;5.728;2023-04-28T02:49:30;6.40;99.90
54642;DHT22;40536;53.194;5.728;2023-04-28T02:51:56;6.30;99.90
54642;DHT22;40536;53.194;5.728;2023-04-28T02:54:22;6.30;99.90
54642;DHT22;40536;53.194;5.728;2023-04-28T02:56:57;6.30;99.90
54642;DHT22;40536;53.194;5.728;2023-04-28T02:59:23;6.50;99.90
54642;DHT22;40536;53.194;5.728;2023-04-28T03:01:49;6.70;99.90
54642;DHT22;40536;53.194;5.728;2023-04-28T03:04:16;7.20;99.90
54642;DHT22;40536;53.194;5.728;2023-04-28T03:06:42;6.40;99.90
54642;DHT22;40536;53.194;5.728;2023-04-28T03:09:08;6.90;99.90
54642;DHT22;40536;53.194;5.728;2023-04-28T03:11:34;6.70;99.90
54642;DHT22;40536;53.194;5.728;2023-04-28T03:14:00;6.30;99.90
54642;DHT22;40536;53.194;5.728;2023-04-28T03:16:26;6.40;99.90
54642;DHT22;40536;53.194;5.728;2023-04-28T03:18:51;6.50;99.90
54642;DHT22;40536;53.194;5.728;2023-04-28T03:21:17;7.30;99.90
54642;DHT22;40536;53.194;5.728;2023-04-28T03:23:43;6.40;99.90
54642;DHT22;40536;53.194;5.728;2023-04-28T03:26:08;6.70;99.90
54642;DHT22;40536;53.194;5.728;2023-04-28T03:28:34;6.80;99.90
54642;DHT22;40536;53.194;5.728;2023-04-28T03:31:00;6.60;99.90
54642;DHT22;40536;53.194;5.728;2023-04-28T03:33:30;7.10;99.90
54642;DHT22;40536;53.194;5.728;2023-04-28T03:35:56;6.40;99.90
54642;DHT22;40536;53.194;5.728;2023-04-28T03:38:22;6.70;99.90
54642;DHT22;40536;53.194;5.728;2023-04-28T03:40:47;6.50;99.90
54642;DHT22;40536;53.194;5.728;2023-04-28T03:43:13;6.50;99.90
54642;DHT22;40536;53.194;5.728;2023-04-28T03:45:39;6.70;99.90
54642;DHT22;40536;53.194;5.728;2023-04-28T03:48:06;6.40;99.90
54642;DHT22;40536;53.194;5.728;2023-04-28T03:50:32;7.00;99.90
54642;DHT22;40536;53.194;5.728;2023-04-28T03:52:57;7.20;99.90
54642;DHT22;40536;53.194;5.728;2023-04-28T03:55:23;6.90;99.90
54642;DHT22;40536;53.194;5.728;2023-04-28T03:57:50;6.50;99.90
54642;DHT22;40536;53.194;5.728;2023-04-28T04:00:16;6.80;99.90
54642;DHT22;40536;53.194;5.728;2023-04-28T04:02:42;6.40;99.90
54642;DHT22;40536;53.194;5.728;2023-04-28T04:05:08;6.50;99.90
54642;DHT22;40536;53.194;5.728;2023-04-28T04:07:33;6.40;99.90
54642;DHT22;40536;53.194;5.728;2023-04-28T04:09:59;7.20;99.90
54642;DHT22;40536;53.194;5.728;2023-04-28T04:12:25;7.10;99.90
54642;DHT22;40536;53.194;5.728;2023-04-28T04:14:51;6.50;99.90
54642;DHT22;40536;53.194;5.728;2023-04-28T04:17:16;6.50;99.90
54642;DHT22;40536;53.194;5.728;2023-04-28T04:19:42;6.50;99.90
54642;DHT22;40536;53.194;5.728;2023-04-28T04:22:07;7.20;99.90
54642;DHT22;40536;53.194;5.728;2023-04-28T04:24:33;6.90;99.90
54642;DHT22;40536;53.194;5.728;2023-04-28T04:26:59;7.30;99.90
54642;DHT22;40536;53.194;5.728;2023-04-28T04:29:24;7.60;99.90
54642;DHT22;40536;53.194;5.728;2023-04-28T04:31:50;7.00;99.90
54642;DHT22;40536;53.194;5.728;2023-04-28T04:34:17;6.60;99.90
54642;DHT22;40536;53.194;5.728;2023-04-28T04:36:51;6.60;99.90
54642;DHT22;40536;53.194;5.728;2023-04-28T04:39:16;6.90;99.90
54642;DHT22;40536;53.194;5.728;2023-04-28T04:41:42;6.90;99.90
54642;DHT22;40536;53.194;5.728;2023-04-28T04:44:08;6.70;99.90
54642;DHT22;40536;53.194;5.728;2023-04-28T04:46:33;7.10;99.90
54642;DHT22;40536;53.194;5.728;2023-04-28T04:48:59;7.50;99.90
54642;DHT22;40536;53.194;5.728;2023-04-28T04:51:24;6.80;99.90
54642;DHT22;40536;53.194;5.728;2023-04-28T04:53:50;6.80;99.90
54642;DHT22;40536;53.194;5.728;2023-04-28T04:56:16;6.80;99.90
54642;DHT22;40536;53.194;5.728;2023-04-28T04:58:44;6.80;99.90
54642;DHT22;40536;53.194;5.728;2023-04-28T05:01:10;6.90;99.90
54642;DHT22;40536;53.194;5.728;2023-04-28T05:03:36;6.90;99.90
54642;DHT22;40536;53.194;5.728;2023-04-28T05:06:01;6.90;99.90
54642;DHT22;40536;53.194;5.728;2023-04-28T05:08:28;6.90;99.90
54642;DHT22;40536;53.194;5.728;2023-04-28T05:10:53;6.90;99.90
54642;DHT22;40536;53.194;5.728;2023-04-28T05:13:19;7.20;99.90
54642;DHT22;40536;53.194;5.728;2023-04-28T05:15:45;7.30;99.90
54642;DHT22;40536;53.194;5.728;2023-04-28T05:18:10;7.80;99.90
54642;DHT22;40536;53.194;5.728;2023-04-28T05:20:38;7.10;99.90
54642;DHT22;40536;53.194;5.728;2023-04-28T05:23:04;7.30;99.90
54642;DHT22;40536;53.194;5.728;2023-04-28T05:25:30;7.50;99.90
54642;DHT22;40536;53.194;5.728;2023-04-28T05:27:56;7.20;99.90
54642;DHT22;40536;53.194;5.728;2023-04-28T05:30:21;7.40;99.90
54642;DHT22;40536;53.194;5.728;2023-04-28T05:32:47;7.30;99.90
54642;DHT22;40536;53.194;5.728;2023-04-28T05:35:13;7.30;99.90
54642;DHT22;40536;53.194;5.728;2023-04-28T05:37:39;7.40;99.90
54642;DHT22;40536;53.194;5.728;2023-04-28T05:40:08;7.40;99.90
54642;DHT22;40536;53.194;5.728;2023-04-28T05:42:34;7.40;99.90
54642;DHT22;40536;53.194;5.728;2023-04-28T05:45:00;7.80;99.90
54642;DHT22;40536;53.194;5.728;2023-04-28T05:47:25;7.40;99.90
54642;DHT22;40536;53.194;5.728;2023-04-28T05:49:51;7.50;99.90
54642;DHT22;40536;53.194;5.728;2023-04-28T05:52:17;7.50;99.90
54642;DHT22;40536;53.194;5.728;2023-04-28T05:54:42;7.50;99.90
54642;DHT22;40536;53.194;5.728;2023-04-28T05:57:08;8.20;99.90
54642;DHT22;40536;53.194;5.728;2023-04-28T05:59:34;7.60;99.90
54642;DHT22;40536;53.194;5.728;2023-04-28T06:01:59;7.60;99.90
54642;DHT22;40536;53.194;5.728;2023-04-28T06:04:25;7.50;99.90
54642;DHT22;40536;53.194;5.728;2023-04-28T06:06:51;8.10;99.90
54642;DHT22;40536;53.194;5.728;2023-04-28T06:09:16;8.30;99.90
54642;DHT22;40536;53.194;5.728;2023-04-28T06:11:42;7.60;99.90
54642;DHT22;40536;53.194;5.728;2023-04-28T06:14:08;7.70;99.90
54642;DHT22;40536;53.194;5.728;2023-04-28T06:16:33;7.60;99.90
54642;DHT22;40536;53.194;5.728;2023-04-28T06:18:59;7.60;99.90
54642;DHT22;40536;53.194;5.728;2023-04-28T06:21:25;7.70;99.90
54642;DHT22;40536;53.194;5.728;2023-04-28T06:23:51;8.60;99.90
54642;DHT22;40536;53.194;5.728;2023-04-28T06:26:17;8.20;99.90
54642;DHT22;40536;53.194;5.728;2023-04-28T06:28:43;7.80;99.90
54642;DHT22;40536;53.194;5.728;2023-04-28T06:31:08;7.80;99.90
54642;DHT22;40536;53.194;5.728;2023-04-28T06:33:34;7.80;99.90
54642;DHT22;40536;53.194;5.728;2023-04-28T06:36:04;7.80;99.90
54642;DHT22;40536;53.194;5.728;2023-04-28T06:38:30;7.80;99.90
54642;DHT22;40536;53.194;5.728;2023-04-28T06:40:55;7.80;99.90
54642;DHT22;40536;53.194;5.728;2023-04-28T06:43:21;7.80;99.90
54642;DHT22;40536;53.194;5.728;2023-04-28T06:45:47;8.40;99.90
54642;DHT22;40536;53.194;5.728;2023-04-28T06:48:12;7.80;99.90
54642;DHT22;40536;53.194;5.728;2023-04-28T06:50:38;7.80;99.90
54642;DHT22;40536;53.194;5.728;2023-04-28T06:53:04;7.80;99.90
54642;DHT22;40536;53.194;5.728;2023-04-28T06:55:29;7.80;99.90
54642;DHT22;40536;53.194;5.728;2023-04-28T06:57:55;7.90;99.90
54642;DHT22;40536;53.194;5.728;2023-04-28T07:00:21;8.60;99.90
54642;DHT22;40536;53.194;5.728;2023-04-28T07:02:47;8.00;99.90
54642;DHT22;40536;53.194;5.728;2023-04-28T07:05:12;8.30;99.90
54642;DHT22;40536;53.194;5.728;2023-04-28T07:07:38;8.10;99.90
54642;DHT22;40536;53.194;5.728;2023-04-28T07:10:05;8.10;99.90
54642;DHT22;40536;53.194;5.728;2023-04-28T07:12:31;8.20;99.90
54642;DHT22;40536;53.194;5.728;2023-04-28T07:14:57;8.20;99.90
54642;DHT22;40536;53.194;5.728;2023-04-28T07:17:22;8.20;99.90
54642;DHT22;40536;53.194;5.728;2023-04-28T07:19:48;8.10;99.90
54642;DHT22;40536;53.194;5.728;2023-04-28T07:22:17;8.10;99.90
54642;DHT22;40536;53.194;5.728;2023-04-28T07:24:43;8.30;99.90
54642;DHT22;40536;53.194;5.728;2023-04-28T07:27:09;7.80;99.90
54642;DHT22;40536;53.194;5.728;2023-04-28T07:29:34;8.00;99.90
54642;DHT22;40536;53.194;5.728;2023-04-28T07:32:01;7.60;99.90
54642;DHT22;40536;53.194;5.728;2023-04-28T07:34:28;7.50;99.90
54642;DHT22;40536;53.194;5.728;2023-04-28T07:36:54;7.50;99.90
54642;DHT22;40536;53.194;5.728;2023-04-28T07:39:20;7.60;99.90
54642;DHT22;40536;53.194;5.728;2023-04-28T07:41:46;7.90;99.90
54642;DHT22;40536;53.194;5.728;2023-04-28T07:44:12;8.60;99.90
54642;DHT22;40536;53.194;5.728;2023-04-28T07:46:38;7.70;99.90
54642;DHT22;40536;53.194;5.728;2023-04-28T07:49:03;7.90;99.90
54642;DHT22;40536;53.194;5.728;2023-04-28T07:51:29;8.00;99.90
54642;DHT22;40536;53.194;5.728;2023-04-28T07:53:55;8.00;99.90
54642;DHT22;40536;53.194;5.728;2023-04-28T07:56:21;8.10;99.90
54642;DHT22;40536;53.194;5.728;2023-04-28T07:58:47;8.40;99.90
54642;DHT22;40536;53.194;5.728;2023-04-28T08:01:13;8.50;99.90
54642;DHT22;40536;53.194;5.728;2023-04-28T08:03:38;8.30;99.90
54642;DHT22;40536;53.194;5.728;2023-04-28T08:06:04;8.40;99.90
54642;DHT22;40536;53.194;5.728;2023-04-28T08:08:30;8.90;99.90
54642;DHT22;40536;53.194;5.728;2023-04-28T08:10:55;8.50;99.90
54642;DHT22;40536;53.194;5.728;2023-04-28T08:13:22;8.60;99.90
54642;DHT22;40536;53.194;5.728;2023-04-28T08:15:48;8.50;99.90
54642;DHT22;40536;53.194;5.728;2023-04-28T08:18:14;8.60;99.90
54642;DHT22;40536;53.194;5.728;2023-04-28T08:20:40;8.60;99.90
54642;DHT22;40536;53.194;5.728;2023-04-28T08:23:06;8.60;99.90
54642;DHT22;40536;53.194;5.728;2023-04-28T08:25:32;8.70;99.90
54642;DHT22;40536;53.194;5.728;2023-04-28T08:27:58;9.00;99.90
54642;DHT22;40536;53.194;5.728;2023-04-28T08:30:23;8.70;99.90
54642;DHT22;40536;53.194;5.728;2023-04-28T08:32:49;8.80;99.90
54642;DHT22;40536;53.194;5.728;2023-04-28T08:35:15;8.70;99.90
54642;DHT22;40536;53.194;5.728;2023-04-28T08:37:41;8.80;99.90
54642;DHT22;40536;53.194;5.728;2023-04-28T08:40:07;8.80;99.90
54642;DHT22;40536;53.194;5.728;2023-04-28T08:42:36;8.90;99.90
54642;DHT22;40536;53.194;5.728;2023-04-28T08:45:03;9.10;99.90
54642;DHT22;40536;53.194;5.728;2023-04-28T08:47:35;9.00;99.90
54642;DHT22;40536;53.194;5.728;2023-04-28T08:50:07;9.10;99.90
54642;DHT22;40536;53.194;5.728;2023-04-28T08:52:34;9.30;99.90
54642;DHT22;40536;53.194;5.728;2023-04-28T08:55:01;9.50;99.90
54642;DHT22;40536;53.194;5.728;2023-04-28T08:57:38;9.70;99.90
54642;DHT22;40536;53.194;5.728;2023-04-28T09:00:05;9.90;99.90
54642;DHT22;40536;53.194;5.728;2023-04-28T09:02:31;10.20;99.90
54642;DHT22;40536;53.194;5.728;2023-04-28T09:04:56;10.50;99.90
54642;DHT22;40536;53.194;5.728;2023-04-28T09:07:22;10.80;99.90
54642;DHT22;40536;53.194;5.728;2023-04-28T09:09:48;11.00;99.90
54642;DHT22;40536;53.194;5.728;2023-04-28T09:12:14;11.20;99.90
54642;DHT22;40536;53.194;5.728;2023-04-28T09:14:40;11.40;99.90
54642;DHT22;40536;53.194;5.728;2023-04-28T09:17:10;11.50;99.90
54642;DHT22;40536;53.194;5.728;2023-04-28T09:19:38;11.50;99.90
54642;DHT22;40536;53.194;5.728;2023-04-28T09:22:05;11.60;99.90
54642;DHT22;40536;53.194;5.728;2023-04-28T09:24:38;11.80;99.90
54642;DHT22;40536;53.194;5.728;2023-04-28T09:27:09;12.10;99.90
54642;DHT22;40536;53.194;5.728;2023-04-28T09:29:51;12.50;99.90
54642;DHT22;40536;53.194;5.728;2023-04-28T09:32:19;12.70;99.90
54642;DHT22;40536;53.194;5.728;2023-04-28T09:34:51;12.80;99.90
54642;DHT22;40536;53.194;5.728;2023-04-28T09:37:18;12.70;99.90
54642;DHT22;40536;53.194;5.728;2023-04-28T09:39:46;12.40;99.90
54642;DHT22;40536;53.194;5.728;2023-04-28T09:42:31;12.20;99.90
54642;DHT22;40536;53.194;5.728;2023-04-28T09:44:58;11.90;99.90
54642;DHT22;40536;53.194;5.728;2023-04-28T09:47:24;11.70;99.90
54642;DHT22;40536;53.194;5.728;2023-04-28T09:49:57;11.60;99.90
54642;DHT22;40536;53.194;5.728;2023-04-28T09:52:23;11.50;99.90
54642;DHT22;40536;53.194;5.728;2023-04-28T09:54:53;11.50;99.90
54642;DHT22;40536;53.194;5.728;2023-04-28T09:57:20;11.50;99.90
54642;DHT22;40536;53.194;5.728;2023-04-28T09:59:51;11.40;99.90
54642;DHT22;40536;53.194;5.728;2023-04-28T10:02:18;11.40;99.90
54642;DHT22;40536;53.194;5.728;2023-04-28T10:04:45;11.40;99.90
54642;DHT22;40536;53.194;5.728;2023-04-28T10:07:12;11.30;99.90
54642;DHT22;40536;53.194;5.728;2023-04-28T10:09:48;11.10;99.90
54642;DHT22;40536;53.194;5.728;2023-04-28T10:12:19;11.10;99.90
54642;DHT22;40536;53.194;5.728;2023-04-28T10:14:45;11.00;99.90
54642;DHT22;40536;53.194;5.728;2023-04-28T10:17:16;11.00;99.90
54642;DHT22;40536;53.194;5.728;2023-04-28T10:19:44;11.00;99.90
54642;DHT22;40536;53.194;5.728;2023-04-28T10:27:41;11.20;99.90
54642;DHT22;40536;53.194;5.728;2023-04-28T10:30:18;11.30;99.90
54642;DHT22;40536;53.194;5.728;2023-04-28T10:32:44;11.30;99.90
54642;DHT22;40536;53.194;5.728;2023-04-28T10:40:37;11.30;99.90
54642;DHT22;40536;53.194;5.728;2023-04-28T10:43:04;11.40;99.90
54642;DHT22;40536;53.194;5.728;2023-04-28T10:58:39;11.50;99.90
54642;DHT22;40536;53.194;5.728;2023-04-28T11:01:29;11.50;99.90
54642;DHT22;40536;53.194;5.728;2023-04-28T11:03:58;11.40;99.90
54642;DHT22;40536;53.194;5.728;2023-04-28T11:06:42;11.40;99.90
54642;DHT22;40536;53.194;5.728;2023-04-28T11:11:37;11.80;99.90
54642;DHT22;40536;53.194;5.728;2023-04-28T11:21:55;11.50;99.90
54642;DHT22;40536;53.194;5.728;2023-04-28T11:24:22;11.60;99.90
54642;DHT22;40536;53.194;5.728;2023-04-28T11:26:50;11.60;99.90
54642;DHT22;40536;53.194;5.728;2023-04-28T11:29:17;11.50;99.90
54642;DHT22;40536;53.194;5.728;2023-04-28T11:31:49;11.50;99.90
54642;DHT22;40536;53.194;5.728;2023-04-28T11:34:19;11.60;99.90
54642;DHT22;40536;53.194;5.728;2023-04-28T11:36:46;11.60;99.90
54642;DHT22;40536;53.194;5.728;2023-04-28T11:39:12;11.70;99.90
54642;DHT22;40536;53.194;5.728;2023-04-28T11:41:43;11.70;99.90
54642;DHT22;40536;53.194;5.728;2023-04-28T11:44:16;12.10;99.90
54642;DHT22;40536;53.194;5.728;2023-04-28T11:46:50;12.80;99.90
54642;DHT22;40536;53.194;5.728;2023-04-28T11:49:21;13.40;99.90
54642;DHT22;40536;53.194;5.728;2023-04-28T11:51:49;13.80;99.90
54642;DHT22;40536;53.194;5.728;2023-04-28T11:54:23;14.10;99.90
54642;DHT22;40536;53.194;5.728;2023-04-28T11:56:49;14.40;99.90
54642;DHT22;40536;53.194;5.728;2023-04-28T11:59:15;14.60;99.90
54642;DHT22;40536;53.194;5.728;2023-04-28T12:01:57;14.80;99.90
54642;DHT22;40536;53.194;5.728;2023-04-28T12:04:34;14.80;99.90
54642;DHT22;40536;53.194;5.728;2023-04-28T12:09:39;15.00;99.90
54642;DHT22;40536;53.194;5.728;2023-04-28T12:12:07;14.80;99.90
54642;DHT22;40536;53.194;5.728;2023-04-28T12:14:56;14.50;99.90
54642;DHT22;40536;53.194;5.728;2023-04-28T12:17:23;14.10;99.90
54642;DHT22;40536;53.194;5.728;2023-04-28T12:19:49;13.90;99.90
54642;DHT22;40536;53.194;5.728;2023-04-28T12:22:15;13.70;99.90
54642;DHT22;40536;53.194;5.728;2023-04-28T12:24:42;13.70;99.90
54642;DHT22;40536;53.194;5.728;2023-04-28T12:27:20;13.50;99.90
54642;DHT22;40536;53.194;5.728;2023-04-28T12:29:46;13.40;99.90
54642;DHT22;40536;53.194;5.728;2023-04-28T12:32:13;13.20;99.90
54642;DHT22;40536;53.194;5.728;2023-04-28T12:34:40;13.10;99.90
54642;DHT22;40536;53.194;5.728;2023-04-28T12:37:09;12.90;99.90
54642;DHT22;40536;53.194;5.728;2023-04-28T12:39:38;12.80;99.90
54642;DHT22;40536;53.194;5.728;2023-04-28T12:42:05;12.70;99.90
54642;DHT22;40536;53.194;5.728;2023-04-28T12:44:32;12.40;99.90
54642;DHT22;40536;53.194;5.728;2023-04-28T12:47:04;12.30;99.90
54642;DHT22;40536;53.194;5.728;2023-04-28T12:49:32;12.10;99.90
54642;DHT22;40536;53.194;5.728;2023-04-28T12:51:58;12.10;99.90
54642;DHT22;40536;53.194;5.728;2023-04-28T12:54:23;12.20;99.90
54642;DHT22;40536;53.194;5.728;2023-04-28T12:56:49;12.20;99.90
54642;DHT22;40536;53.194;5.728;2023-04-28T12:59:15;12.30;99.90
54642;DHT22;40536;53.194;5.728;2023-04-28T13:01:41;12.20;99.90
54642;DHT22;40536;53.194;5.728;2023-04-28T13:04:06;12.20;99.90
54642;DHT22;40536;53.194;5.728;2023-04-28T13:06:33;12.20;99.90
54642;DHT22;40536;53.194;5.728;2023-04-28T13:08:59;12.20;99.90
54642;DHT22;40536;53.194;5.728;2023-04-28T13:11:25;12.20;99.90
54642;DHT22;40536;53.194;5.728;2023-04-28T13:13:52;12.10;99.90
54642;DHT22;40536;53.194;5.728;2023-04-28T13:16:18;12.20;99.90
54642;DHT22;40536;53.194;5.728;2023-04-28T13:18:44;12.20;99.90
54642;DHT22;40536;53.194;5.728;2023-04-28T13:21:09;12.20;99.90
54642;DHT22;40536;53.194;5.728;2023-04-28T13:23:36;12.20;99.90
54642;DHT22;40536;53.194;5.728;2023-04-28T13:26:01;12.20;99.90
54642;DHT22;40536;53.194;5.728;2023-04-28T13:28:28;12.20;99.90
54642;DHT22;40536;53.194;5.728;2023-04-28T13:30:54;12.00;99.90
54642;DHT22;40536;53.194;5.728;2023-04-28T13:33:22;11.80;99.90
54642;DHT22;40536;53.194;5.728;2023-04-28T13:35:47;11.70;99.90
54642;DHT22;40536;53.194;5.728;2023-04-28T13:38:14;11.60;99.90
54642;DHT22;40536;53.194;5.728;2023-04-28T13:40:40;11.60;99.90
54642;DHT22;40536;53.194;5.728;2023-04-28T13:43:06;11.50;99.90
54642;DHT22;40536;53.194;5.728;2023-04-28T13:45:32;11.50;99.90
54642;DHT22;40536;53.194;5.728;2023-04-28T13:47:57;11.50;99.90
54642;DHT22;40536;53.194;5.728;2023-04-28T13:50:23;11.40;99.90
54642;DHT22;40536;53.194;5.728;2023-04-28T13:52:49;11.20;99.90
54642;DHT22;40536;53.194;5.728;2023-04-28T13:55:15;11.10;99.90
54642;DHT22;40536;53.194;5.728;2023-04-28T13:57:40;11.10;99.90
54642;DHT22;40536;53.194;5.728;2023-04-28T14:00:07;11.00;99.90
54642;DHT22;40536;53.194;5.728;2023-04-28T14:02:32;11.00;99.90
54642;DHT22;40536;53.194;5.728;2023-04-28T14:04:58;11.20;99.90
54642;DHT22;40536;53.194;5.728;2023-04-28T14:07:24;11.20;99.90
54642;DHT22;40536;53.194;5.728;2023-04-28T14:09:49;11.20;99.90
54642;DHT22;40536;53.194;5.728;2023-04-28T14:12:15;11.20;99.90
54642;DHT22;40536;53.194;5.728;2023-04-28T14:14:41;11.10;99.90
54642;DHT22;40536;53.194;5.728;2023-04-28T14:17:07;11.20;99.90
54642;DHT22;40536;53.194;5.728;2023-04-28T14:19:33;11.20;99.90
54642;DHT22;40536;53.194;5.728;2023-04-28T14:21:59;11.20;99.90
54642;DHT22;40536;53.194;5.728;2023-04-28T14:24:24;11.30;99.90
54642;DHT22;40536;53.194;5.728;2023-04-28T14:26:51;11.50;99.90
54642;DHT22;40536;53.194;5.728;2023-04-28T14:29:17;11.50;99.90
54642;DHT22;40536;53.194;5.728;2023-04-28T14:31:42;11.40;99.90
54642;DHT22;40536;53.194;5.728;2023-04-28T14:34:09;11.50;99.90
54642;DHT22;40536;53.194;5.728;2023-04-28T14:36:35;11.50;99.90
54642;DHT22;40536;53.194;5.728;2023-04-28T14:39:02;11.50;99.90
54642;DHT22;40536;53.194;5.728;2023-04-28T14:41:28;12.10;99.90
54642;DHT22;40536;53.194;5.728;2023-04-28T14:43:54;11.60;99.90
54642;DHT22;40536;53.194;5.728;2023-04-28T14:46:19;11.60;99.90
54642;DHT22;40536;53.194;5.728;2023-04-28T14:48:50;11.60;99.90
54642;DHT22;40536;53.194;5.728;2023-04-28T14:51:17;11.60;99.90
54642;DHT22;40536;53.194;5.728;2023-04-28T14:53:43;11.70;99.90
54642;DHT22;40536;53.194;5.728;2023-04-28T14:56:08;11.70;99.90
54642;DHT22;40536;53.194;5.728;2023-04-28T14:58:34;11.60;99.90
54642;DHT22;40536;53.194;5.728;2023-04-28T15:01:01;11.80;99.90
54642;DHT22;40536;53.194;5.728;2023-04-28T15:03:28;11.80;99.90
54642;DHT22;40536;53.194;5.728;2023-04-28T15:05:53;11.80;99.90
54642;DHT22;40536;53.194;5.728;2023-04-28T15:08:19;11.90;99.90
54642;DHT22;40536;53.194;5.728;2023-04-28T15:10:44;12.00;99.90
54642;DHT22;40536;53.194;5.728;2023-04-28T15:13:10;12.00;99.90
54642;DHT22;40536;53.194;5.728;2023-04-28T15:15:36;12.10;99.90
54642;DHT22;40536;53.194;5.728;2023-04-28T15:18:02;12.10;99.90
54642;DHT22;40536;53.194;5.728;2023-04-28T15:20:32;12.20;99.90
54642;DHT22;40536;53.194;5.728;2023-04-28T15:22:58;12.20;99.90
54642;DHT22;40536;53.194;5.728;2023-04-28T15:25:24;12.20;99.90
54642;DHT22;40536;53.194;5.728;2023-04-28T15:27:50;12.20;99.90
54642;DHT22;40536;53.194;5.728;2023-04-28T15:30:17;12.20;99.90
54642;DHT22;40536;53.194;5.728;2023-04-28T15:32:43;12.30;99.90
54642;DHT22;40536;53.194;5.728;2023-04-28T15:35:09;12.40;99.90
54642;DHT22;40536;53.194;5.728;2023-04-28T15:37:40;12.40;99.90
54642;DHT22;40536;53.194;5.728;2023-04-28T15:40:09;12.40;99.90
54642;DHT22;40536;53.194;5.728;2023-04-28T15:42:35;12.50;99.90
54642;DHT22;40536;53.194;5.728;2023-04-28T15:45:02;12.40;99.90
54642;DHT22;40536;53.194;5.728;2023-04-28T15:47:28;12.50;99.90
54642;DHT22;40536;53.194;5.728;2023-04-28T15:49:56;12.50;99.90
54642;DHT22;40536;53.194;5.728;2023-04-28T15:52:23;12.40;99.90
54642;DHT22;40536;53.194;5.728;2023-04-28T15:54:49;12.30;99.90
54642;DHT22;40536;53.194;5.728;2023-04-28T15:57:15;12.30;99.90
54642;DHT22;40536;53.194;5.728;2023-04-28T15:59:40;12.40;99.90
54642;DHT22;40536;53.194;5.728;2023-04-28T16:02:06;12.50;99.90
54642;DHT22;40536;53.194;5.728;2023-04-28T16:04:32;12.50;99.90
54642;DHT22;40536;53.194;5.728;2023-04-28T16:06:57;12.50;99.90
54642;DHT22;40536;53.194;5.728;2023-04-28T16:09:27;12.50;99.90
54642;DHT22;40536;53.194;5.728;2023-04-28T16:11:53;12.40;99.90
54642;DHT22;40536;53.194;5.728;2023-04-28T16:14:18;12.40;99.90